Time;durP1;ratioP1;P1;durP2;ratioP2;P2;SDS_P1;SDS_P2;PMS_P1;PMS_P2;Temp;Humidity;BMP_temperature;BMP_pressure;BME280_temperature;BME280_humidity;BME280_pressure;Samples;Min_cycle;Max_cycle;Signal;HPM_P1;HPM_P2
2022/03/22 00:00:12;;;;;;;32.07;21.70;;;;;;;0.63;77.33;103476.06;4955745;29;20069;-65
2022/03/22 00:02:38;;;;;;;34.30;22.10;;;;;;;0.58;77.35;103467.44;4955209;29;20042;-64
2022/03/22 00:05:04;;;;;;;35.33;20.77;;;;;;;0.64;77.24;103474.31;4954748;29;20274;-66
2022/03/22 00:07:31;;;;;;;38.57;21.50;;;;;;;0.60;77.46;103470.88;4955068;29;20069;-63
2022/03/22 00:09:59;;;;;;;29.00;19.47;;;;;;;0.60;77.16;103473.50;4955520;29;20302;-65
2022/03/22 00:12:25;;;;;;;32.55;20.02;;;;;;;0.65;77.60;103479.50;4954715;29;20278;-65
2022/03/22 00:14:50;;;;;;;32.97;21.10;;;;;;;0.65;77.66;103470.78;4956473;29;20138;-66
2022/03/22 00:17:16;;;;;;;29.63;19.37;;;;;;;0.67;77.39;103472.47;4955860;29;20114;-64
2022/03/22 00:19:41;;;;;;;34.07;22.80;;;;;;;0.66;77.17;103469.88;4955680;29;20039;-66
2022/03/22 00:22:06;;;;;;;29.77;19.87;;;;;;;0.64;77.35;103472.53;4953966;29;20418;-64
2022/03/22 00:24:35;;;;;;;30.73;21.13;;;;;;;0.63;76.79;103476.06;4953812;29;20150;-65
2022/03/22 00:27:02;;;;;;;31.60;19.97;;;;;;;0.45;77.20;103442.34;4954551;29;20039;-63
2022/03/22 00:29:27;;;;;;;31.83;20.00;;;;;;;0.56;77.49;103453.47;4953805;29;20855;-65
2022/03/22 00:31:53;;;;;;;36.13;21.37;;;;;;;0.45;77.13;103439.72;4953331;29;20082;-63
2022/03/22 00:34:19;;;;;;;26.73;19.07;;;;;;;0.58;77.44;103462.19;4953809;29;20039;-63
2022/03/22 00:36:45;;;;;;;33.17;19.70;;;;;;;0.51;77.28;103455.31;4953693;29;20077;-62
2022/03/22 00:39:11;;;;;;;31.83;18.40;;;;;;;0.51;77.07;103464.03;4954097;29;20035;-66
2022/03/22 00:41:36;;;;;;;28.33;18.07;;;;;;;0.50;77.17;103461.47;4954115;29;20641;-64
2022/03/22 00:44:02;;;;;;;26.27;18.13;;;;;;;0.52;77.32;103471.03;4954489;29;20046;-64
2022/03/22 00:46:27;;;;;;;28.80;17.43;;;;;;;0.51;77.10;103469.28;4953973;29;20039;-65
2022/03/22 00:48:53;;;;;;;29.33;18.83;;;;;;;0.47;77.59;103465.00;4954056;29;20113;-65
2022/03/22 00:51:20;;;;;;;26.53;18.87;;;;;;;0.46;77.59;103479.00;4954154;29;20122;-64
2022/03/22 00:53:47;;;;;;;31.77;19.07;;;;;;;0.48;77.26;103476.34;4953713;29;20043;-64
2022/03/22 00:56:12;;;;;;;30.50;19.27;;;;;;;0.46;77.50;103458.03;4953664;29;20267;-65
2022/03/22 00:58:38;;;;;;;36.33;18.93;;;;;;;0.19;77.40;103417.53;4955918;29;20277;-64
2022/03/22 01:01:03;;;;;;;31.90;18.67;;;;;;;0.51;77.08;103469.28;4953761;29;20073;-61
2022/03/22 01:03:29;;;;;;;27.43;19.37;;;;;;;0.52;77.32;103472.78;4953779;29;20077;-65
2022/03/22 01:05:55;;;;;;;25.63;17.80;;;;;;;0.48;77.54;103464.13;4953574;29;20129;-65
2022/03/22 01:08:22;;;;;;;30.27;18.97;;;;;;;0.48;77.40;103473.75;4953341;29;20039;-66
2022/03/22 01:10:52;;;;;;;26.27;18.53;;;;;;;0.50;77.18;103461.47;4936359;29;20298;-64
2022/03/22 01:13:22;;;;;;;28.27;17.20;;;;;;;0.42;77.32;103455.50;4955284;29;20259;-66
2022/03/22 01:15:49;;;;;;;27.83;18.10;;;;;;;0.51;76.97;103479.78;4953331;29;20777;-66
2022/03/22 01:18:15;;;;;;;31.83;17.97;;;;;;;0.50;77.22;103471.94;4953332;29;20370;-63
2022/03/22 01:20:46;;;;;;;29.40;18.17;;;;;;;0.47;77.10;103474.63;4953419;29;20651;-65
2022/03/22 01:23:12;;;;;;;28.53;16.63;;;;;;;0.40;77.60;103479.16;4953050;29;20274;-65
2022/03/22 01:25:41;;;;;;;30.20;17.67;;;;;;;0.33;77.73;103471.44;4953441;29;20291;-65
2022/03/22 01:28:11;;;;;;;28.13;16.80;;;;;;;0.32;78.23;103469.72;4954443;29;20055;-63
2022/03/22 01:30:37;;;;;;;24.93;16.67;;;;;;;0.34;77.87;103470.53;4953159;29;20650;-64
2022/03/22 01:33:03;;;;;;;25.37;16.43;;;;;;;0.35;77.63;103469.66;4953423;29;20267;-66
2022/03/22 01:35:29;;;;;;;25.23;16.83;;;;;;;0.34;78.00;103467.94;4953306;29;20274;-65
2022/03/22 01:37:55;;;;;;;21.77;16.37;;;;;;;0.31;77.64;103479.34;4953399;29;20274;-64
2022/03/22 01:40:23;;;;;;;32.97;16.97;;;;;;;0.34;77.88;103475.78;4953321;29;20267;-64
2022/03/22 01:42:49;;;;;;;26.40;17.13;;;;;;;0.32;77.86;103480.19;4953664;28;20398;-65
2022/03/22 01:45:16;;;;;;;23.87;16.77;;;;;;;0.30;77.95;103475.84;4955716;29;20258;-63
2022/03/22 01:47:43;;;;;;;23.07;15.97;;;;;;;0.35;77.45;103474.91;4956503;29;20263;-65
2022/03/22 01:50:12;;;;;;;25.05;15.77;;;;;;;0.29;77.78;103463.66;4956985;29;20337;-65
2022/03/22 01:52:40;;;;;;;29.83;16.27;;;;;;;0.35;77.64;103475.75;4956386;29;20487;-64
2022/03/22 01:55:11;;;;;;;22.83;15.80;;;;;;;0.33;77.53;103471.44;4956375;29;20570;-65
2022/03/22 01:57:37;;;;;;;25.47;15.70;;;;;;;0.34;77.74;103467.94;4956859;29;20271;-65
2022/03/22 02:00:08;;;;;;;24.73;15.87;;;;;;;0.33;77.81;103466.19;4956635;29;20282;-62
2022/03/22 02:08:08;;;;;;;25.97;17.53;;;;;;;0.27;77.91;103456.69;4956345;29;20287;-64
2022/03/22 02:10:34;;;;;;;26.53;15.03;;;;;;;0.29;77.61;103461.03;4956381;29;20275;-62
2022/03/22 02:13:01;;;;;;;24.50;15.70;;;;;;;0.32;77.45;103454.84;4956511;29;20369;-65
2022/03/22 02:15:27;;;;;;;23.10;15.73;;;;;;;0.32;77.65;103456.59;4956083;29;20266;-65
2022/03/22 02:17:52;;;;;;;23.60;16.10;;;;;;;0.36;77.71;103468.75;4956193;29;20270;-64
2022/03/22 02:20:18;;;;;;;26.00;16.07;;;;;;;0.34;77.06;103462.69;4955883;29;20035;-64
2022/03/22 02:23:02;;;;;;;22.13;15.73;;;;;;;0.33;77.62;103456.56;4956069;29;20135;-63
2022/03/22 02:25:29;;;;;;;22.93;16.17;;;;;;;0.28;77.80;103461.88;4956092;29;20059;-65
2022/03/22 02:27:54;;;;;;;25.20;16.60;;;;;;;0.27;77.51;103462.78;4956466;29;20275;-66
2022/03/22 02:30:21;;;;;;;26.60;17.83;;;;;;;0.10;78.16;103430.81;4956205;29;20360;-64
2022/03/22 02:32:55;;;;;;;26.60;16.50;;;;;;;0.18;78.17;103451.63;4955810;29;20067;-67
2022/03/22 02:35:22;;;;;;;28.40;16.40;;;;;;;0.20;78.25;103455.94;4955835;29;20277;-64
2022/03/22 02:37:48;;;;;;;25.20;17.17;;;;;;;0.16;78.18;103453.41;4955925;29;20275;-65
2022/03/22 02:40:14;;;;;;;25.60;17.07;;;;;;;0.19;77.86;103459.47;4955626;29;20267;-62
2022/03/22 02:42:45;;;;;;;25.40;17.57;;;;;;;0.06;78.62;103442.25;4955772;29;20259;-64
2022/03/22 02:45:12;;;;;;;28.23;17.20;;;;;;;0.16;78.28;103459.53;4955328;29;20671;-65
2022/03/22 02:47:40;;;;;;;22.43;15.40;;;;;;;0.11;78.46;103445.66;4955599;29;20362;-62
2022/03/22 02:50:07;;;;;;;24.55;16.60;;;;;;;0.13;78.24;103443.00;4955360;29;20299;-64
2022/03/22 02:52:36;;;;;;;27.37;17.37;;;;;;;0.14;78.31;103449.97;4955192;29;20043;-63
2022/03/22 02:55:04;;;;;;;25.43;16.53;;;;;;;0.05;78.16;103439.66;4955165;28;20309;-66
2022/03/22 02:57:30;;;;;;;25.33;16.17;;;;;;;0.13;78.01;103448.25;4955672;29;20354;-63
2022/03/22 02:59:55;;;;;;;27.07;15.90;;;;;;;0.06;78.38;103452.75;4955576;29;20374;-63
2022/03/22 03:02:21;;;;;;;30.07;18.97;;;;;;;0.06;78.30;103452.75;4955473;29;20059;-65
2022/03/22 03:04:46;;;;;;;32.67;17.93;;;;;;;0.02;78.66;103432.72;4956225;29;20050;-64
2022/03/22 03:07:12;;;;;;;30.40;18.07;;;;;;;-0.11;78.33;103412.88;4955951;29;20446;-64
2022/03/22 03:09:37;;;;;;;28.33;15.93;;;;;;;-0.03;78.85;103435.41;4955669;29;20108;-64
2022/03/22 03:12:03;;;;;;;29.30;18.97;;;;;;;0.04;78.26;103438.81;4956712;29;20066;-65
2022/03/22 03:14:40;;;;;;;27.57;17.93;;;;;;;0.06;78.63;103447.50;4956569;29;20125;-63
2022/03/22 03:17:07;;;;;;;35.40;18.30;;;;;;;0.05;78.13;103443.16;4955945;29;20039;-64
2022/03/22 03:19:33;;;;;;;31.57;16.80;;;;;;;0.00;78.01;103439.75;4938526;29;20275;-65
2022/03/22 03:21:59;;;;;;;29.43;18.00;;;;;;;-0.05;78.57;103433.72;4954750;29;20418;-64
2022/03/22 03:24:25;;;;;;;26.90;16.90;;;;;;;-0.01;78.57;103449.34;4954789;29;20070;-64
2022/03/22 03:26:53;;;;;;;29.07;17.87;;;;;;;-0.01;78.45;103451.09;4954730;29;20279;-64
2022/03/22 03:29:19;;;;;;;30.93;17.73;;;;;;;-0.01;78.53;103456.34;4955438;29;20039;-63
2022/03/22 03:31:44;;;;;;;27.83;16.47;;;;;;;-0.01;78.21;103459.81;4954943;29;20266;-65
2022/03/22 03:34:10;;;;;;;26.83;16.47;;;;;;;-0.04;78.17;103445.94;4954427;29;20042;-64
2022/03/22 03:36:36;;;;;;;27.03;17.90;;;;;;;-0.14;78.45;103436.53;4954211;29;20075;-66
2022/03/22 03:39:03;;;;;;;28.77;15.80;;;;;;;-0.05;77.95;103454.69;4954570;29;20090;-65
2022/03/22 03:47:03;;;;;;;28.50;15.73;;;;;;;-0.05;77.96;103444.19;4954506;29;20330;-63
2022/03/22 03:49:29;;;;;;;24.93;16.27;;;;;;;-0.09;78.21;103432.06;4954581;29;20302;-64
2022/03/22 03:51:55;;;;;;;23.40;16.17;;;;;;;-0.06;77.62;103442.47;4954447;29;20270;-65
2022/03/22 03:54:20;;;;;;;25.47;17.93;;;;;;;-0.16;78.10;103423.47;4954477;29;20106;-63
2022/03/22 03:56:46;;;;;;;25.97;16.30;;;;;;;-0.05;77.56;103447.69;4954227;29;20039;-66
2022/03/22 03:59:12;;;;;;;27.27;16.63;;;;;;;-0.07;77.58;103440.75;4954429;29;20031;-66
2022/03/22 04:01:37;;;;;;;26.50;16.67;;;;;;;-0.07;77.64;103446.84;4954333;29;20302;-64
2022/03/22 04:04:03;;;;;;;27.57;16.80;;;;;;;-0.05;78.07;103454.69;4955784;29;20042;-63
2022/03/22 04:06:29;;;;;;;25.03;16.27;;;;;;;-0.07;78.02;103454.72;4939116;29;20070;-66
2022/03/22 04:08:55;;;;;;;24.60;15.37;;;;;;;-0.07;77.95;103443.38;4954450;29;20295;-68
2022/03/22 04:11:21;;;;;;;24.07;15.77;;;;;;;-0.02;77.80;103438.91;4954238;29;20263;-66
2022/03/22 04:13:46;;;;;;;26.50;15.13;;;;;;;-0.04;77.30;103445.94;4937301;29;20043;-70
2022/03/22 04:16:12;;;;;;;24.67;15.10;;;;;;;0.02;77.44;103465.94;4954316;29;20439;-68
2022/03/22 04:18:37;;;;;;;19.93;14.70;;;;;;;0.04;77.69;103459.75;4954073;29;20130;-63
2022/03/22 04:21:03;;;;;;;22.37;14.63;;;;;;;0.04;77.22;103459.75;4955526;29;20035;-67
2022/03/22 04:23:30;;;;;;;25.40;14.80;;;;;;;0.05;77.10;103455.38;4956066;29;20070;-65
2022/03/22 04:25:59;;;;;;;19.87;13.63;;;;;;;0.03;76.86;103458.03;4955388;29;20058;-63
2022/03/22 04:33:53;;;;;;;19.57;13.80;;;;;;;0.07;76.72;103448.38;4953099;29;20263;-67
2022/03/22 04:36:19;;;;;;;23.70;14.67;;;;;;;0.11;76.63;103448.28;4953701;29;20717;-66
2022/03/22 04:38:44;;;;;;;23.77;15.07;;;;;;;0.13;77.19;103453.47;4953288;29;20046;-64
2022/03/22 04:41:10;;;;;;;26.13;16.40;;;;;;;0.11;76.66;103440.41;4953741;29;20059;-62
2022/03/22 04:43:35;;;;;;;24.77;15.33;;;;;;;0.14;77.22;103455.19;4956140;29;20115;-66
2022/03/22 04:46:04;;;;;;;23.83;15.53;;;;;;;0.16;76.85;103448.16;4956396;29;20039;-62
2022/03/22 04:48:29;;;;;;;24.77;16.05;;;;;;;0.18;77.08;103457.72;4956579;29;20051;-64
2022/03/22 04:59:07;;;;;;;22.93;16.30;;;;;;;0.26;76.50;103445.31;4954591;29;20275;-64
2022/03/22 05:01:32;;;;;;;28.67;17.23;;;;;;;0.20;76.99;103448.06;4953616;29;20271;-65
2022/03/22 05:03:58;;;;;;;28.73;16.93;;;;;;;0.24;76.93;103447.13;4953365;29;20149;-67
2022/03/22 05:06:26;;;;;;;27.53;15.87;;;;;;;0.29;76.93;103445.28;4953892;29;20051;-66
2022/03/22 05:08:55;;;;;;;35.57;16.77;;;;;;;0.35;76.82;103444.31;4936829;29;20043;-62
2022/03/22 05:11:21;;;;;;;25.17;16.20;;;;;;;0.40;76.72;103450.31;4953104;29;20266;-66
2022/03/22 05:13:47;;;;;;;28.93;18.60;;;;;;;0.43;77.46;103446.75;4953487;29;20271;-66
2022/03/22 05:16:12;;;;;;;25.93;16.30;;;;;;;0.43;77.50;103452.00;4953398;29;20277;-66
2022/03/22 05:18:38;;;;;;;31.20;19.13;;;;;;;0.46;77.27;103454.56;4955157;28;20035;-66
2022/03/22 05:21:04;;;;;;;27.43;18.73;;;;;;;0.52;77.18;103462.28;4940044;29;20049;-66
2022/03/22 05:23:33;;;;;;;38.00;18.50;;;;;;;0.52;77.75;103455.28;4956996;29;20110;-62
2022/03/22 05:26:00;;;;;;;33.97;18.97;;;;;;;0.58;77.24;103459.56;4957026;29;20758;-67
2022/03/22 05:28:26;;;;;;;31.33;20.40;;;;;;;0.51;77.55;103444.81;4923485;29;20307;-64
2022/03/22 05:30:51;;;;;;;30.63;20.03;;;;;;;0.30;77.15;103407.69;4955666;29;20746;-67
2022/03/22 05:33:17;;;;;;;31.57;19.07;;;;;;;0.69;77.31;103451.44;4956474;29;20479;-66
2022/03/22 05:35:42;;;;;;;32.60;20.10;;;;;;;0.74;76.92;103462.69;4956953;29;20479;-68
2022/03/22 05:38:08;;;;;;;35.27;21.43;;;;;;;0.74;76.80;103458.31;4956543;29;20039;-66
2022/03/22 05:40:33;;;;;;;31.10;19.13;;;;;;;0.78;77.02;103454.72;4939390;29;20062;-64
2022/03/22 05:42:59;;;;;;;31.33;20.13;;;;;;;0.85;77.24;103458.94;4956486;29;20047;-67
2022/03/22 05:45:26;;;;;;;32.83;21.13;;;;;;;0.89;76.62;103452.75;4957739;29;20102;-66
2022/03/22 05:47:53;;;;;;;33.53;19.47;;;;;;;0.82;76.39;103430.16;4956462;29;20055;-65
2022/03/22 05:50:19;;;;;;;29.30;18.40;;;;;;;1.01;76.09;103467.34;4956383;29;20303;-66
2022/03/22 05:52:47;;;;;;;27.97;18.77;;;;;;;0.98;75.95;103451.66;4938884;29;20769;-66
2022/03/22 05:55:13;;;;;;;32.92;19.88;;;;;;;1.10;75.90;103459.25;4956407;29;20053;-70
2022/03/22 05:57:39;;;;;;;39.07;19.27;;;;;;;1.00;76.07;103431.50;4956411;29;20445;-66
2022/03/22 06:00:06;;;;;;;32.43;19.27;;;;;;;1.16;75.88;103456.50;4956442;29;20317;-68
2022/03/22 06:02:36;;;;;;;35.67;20.17;;;;;;;1.13;75.58;103434.69;4956488;29;20269;-65
2022/03/22 06:05:04;;;;;;;31.70;18.53;;;;;;;1.32;75.33;103458.75;4956885;29;20642;-65
2022/03/22 06:07:29;;;;;;;35.70;16.57;;;;;;;1.37;74.70;103456.84;4955687;29;20270;-67
2022/03/22 06:09:54;;;;;;;31.63;17.80;;;;;;;1.38;74.40;103456.81;4939123;29;20295;-66
2022/03/22 06:12:20;;;;;;;24.97;16.53;;;;;;;1.39;74.02;103461.16;4956013;29;20045;-70
2022/03/22 06:14:46;;;;;;;26.90;16.73;;;;;;;1.41;74.25;103462.00;4945745;28;20057;-70
2022/03/22 06:17:11;;;;;;;30.17;17.53;;;;;;;1.44;73.88;103459.28;4975292;28;20394;-66
2022/03/22 06:19:37;;;;;;;30.60;16.97;;;;;;;1.45;73.87;103452.31;4974623;28;20038;-60
2022/03/22 06:22:03;;;;;;;33.10;16.87;;;;;;;1.58;73.73;103463.34;4975426;28;20394;-72
2022/03/22 06:24:31;;;;;;;28.57;17.17;;;;;;;1.67;73.80;103458.72;4976340;28;20058;-70
2022/03/22 06:27:03;;;;;;;38.47;18.57;;;;;;;1.76;73.40;103468.16;4985915;28;20053;-66
2022/03/22 06:29:29;;;;;;;31.30;17.80;;;;;;;1.79;73.31;103457.56;4977947;28;20289;-65
2022/03/22 06:31:54;;;;;;;30.30;19.63;;;;;;;1.80;73.22;103464.53;4978528;28;20053;-63
2022/03/22 06:34:20;;;;;;;30.37;19.63;;;;;;;1.79;73.67;103457.56;4977181;28;20476;-68
2022/03/22 06:36:45;;;;;;;39.57;19.43;;;;;;;1.77;73.16;103446.22;4976542;28;20118;-72
2022/03/22 06:39:11;;;;;;;40.13;20.73;;;;;;;1.75;73.15;103434.91;4959046;28;20077;-73
2022/03/22 06:41:36;;;;;;;36.80;20.50;;;;;;;1.94;73.06;103461.53;4975660;28;20043;-68
2022/03/22 06:44:02;;;;;;;49.57;21.07;;;;;;;1.94;73.11;103457.13;4974977;28;20491;-74
2022/03/22 06:46:27;;;;;;;36.37;19.30;;;;;;;2.00;72.61;103462.22;4959551;28;20042;-69
2022/03/22 06:48:53;;;;;;;36.80;20.07;;;;;;;1.93;72.85;103438.78;4974877;28;20049;-68
2022/03/22 06:51:19;;;;;;;39.73;21.13;;;;;;;2.12;72.74;103464.53;4974583;28;20047;-63
2022/03/22 06:53:45;;;;;;;40.93;18.17;;;;;;;2.20;72.57;103458.19;4974687;28;20034;-64
2022/03/22 06:56:10;;;;;;;39.67;19.63;;;;;;;2.15;71.99;103456.56;4957264;28;20274;-66
2022/03/22 06:58:36;;;;;;;41.60;19.70;;;;;;;2.22;72.38;103461.63;4974665;28;20057;-68
2022/03/22 07:01:01;;;;;;;48.80;19.90;;;;;;;2.22;72.27;103451.13;4975321;28;20490;-70
2022/03/22 07:03:27;;;;;;;31.00;20.37;;;;;;;2.33;72.32;103465.72;4980001;28;20086;-68
2022/03/22 07:05:55;;;;;;;42.17;18.60;;;;;;;2.36;71.90;103472.66;4967436;28;20058;-67
2022/03/22 07:08:20;;;;;;;36.80;19.33;;;;;;;2.43;71.68;103461.91;4957957;28;20030;-71
2022/03/22 07:11:47;;;;;;;43.53;21.37;;;;;;;2.33;71.83;103446.44;4975392;28;20273;-71
2022/03/22 07:13:32;;;;;;;37.07;19.03;;;;;;;2.45;71.83;103459.22;4975050;28;20054;-70
2022/03/22 07:15:58;;;;;;;33.63;21.20;;;;;;;2.45;71.64;103460.09;4981598;28;20763;-75
2022/03/22 07:18:24;;;;;;;34.23;17.97;;;;;;;2.57;71.10;103468.50;4976624;28;20305;-71
2022/03/22 07:20:49;;;;;;;39.97;19.90;;;;;;;2.60;71.03;103465.78;4975922;28;20042;-70
2022/03/22 07:23:15;;;;;;;45.70;19.63;;;;;;;2.56;71.09;103457.13;4974736;28;20034;-72
2022/03/22 07:25:41;;;;;;;36.73;19.37;;;;;;;2.53;70.94;103436.19;4957793;28;20514;-71
2022/03/22 07:28:07;;;;;;;36.73;19.20;;;;;;;2.69;70.68;103461.13;4975620;28;20062;-70
2022/03/22 07:30:32;;;;;;;41.43;19.23;;;;;;;2.76;70.56;103464.44;4975465;28;20405;-73
2022/03/22 07:33:05;;;;;;;39.43;18.20;;;;;;;2.73;70.31;103443.50;4975116;28;20034;-67
2022/03/22 07:35:32;;;;;;;29.57;17.67;;;;;;;2.83;70.46;103458.06;4974149;28;20038;-69
2022/03/22 07:37:57;;;;;;;41.57;19.20;;;;;;;2.96;70.06;103466.47;4973332;28;20650;-68
2022/03/22 07:40:23;;;;;;;34.63;18.27;;;;;;;2.98;70.04;103455.00;4956678;28;20267;-69
2022/03/22 07:42:48;;;;;;;27.27;17.23;;;;;;;3.02;69.76;103456.59;4972610;28;20066;-66
2022/03/22 07:45:14;;;;;;;36.17;17.80;;;;;;;3.06;69.38;103467.91;4974004;28;20035;-63
2022/03/22 07:47:41;;;;;;;31.93;17.27;;;;;;;3.10;69.39;103473.03;4957947;28;20034;-66
2022/03/22 07:53:06;;;;;;;39.83;19.77;;;;;;;3.11;68.20;103471.25;4975933;28;20297;-66
2022/03/22 07:55:37;;;;;;;32.17;16.83;;;;;;;3.17;68.49;103464.91;4976234;28;20274;-64
2022/03/22 07:58:05;;;;;;;30.40;18.87;;;;;;;3.13;68.58;103460.66;4976216;28;20277;-68
2022/03/22 08:00:56;;;;;;;42.87;19.50;;;;;;;3.13;68.63;103464.16;4961090;28;20348;-67
2022/03/22 08:03:23;;;;;;;36.27;17.77;;;;;;;3.17;68.45;103471.03;4974980;28;20824;-71
2022/03/22 08:05:51;;;;;;;38.97;18.60;;;;;;;3.15;68.62;103470.22;4973606;28;20178;-67
2022/03/22 08:08:17;;;;;;;44.70;17.58;;;;;;;3.20;68.50;103463.09;4975197;28;20913;-68
2022/03/22 08:10:44;;;;;;;28.77;15.33;;;;;;;3.24;67.94;103466.47;4975191;28;20108;-68
2022/03/22 08:13:10;;;;;;;33.17;18.20;;;;;;;3.30;68.25;103466.28;4976350;28;20042;-67
2022/03/22 08:15:35;;;;;;;29.10;17.03;;;;;;;3.35;67.59;103469.59;4973947;28;20270;-67
2022/03/22 08:18:01;;;;;;;28.27;18.47;;;;;;;3.32;67.67;103465.31;4975358;28;20042;-70
2022/03/22 08:20:30;;;;;;;29.10;17.40;;;;;;;3.39;67.56;103463.31;4973866;28;20042;-70
2022/03/22 08:23:04;;;;;;;34.65;18.45;;;;;;;3.39;67.08;103472.09;4973418;28;20121;-68
2022/03/22 08:25:34;;;;;;;28.47;18.40;;;;;;;3.43;66.99;103467.56;4973760;28;20051;-67
2022/03/22 08:28:03;;;;;;;26.30;17.83;;;;;;;3.51;66.94;103464.72;4973246;28;20284;-69
2022/03/22 08:30:29;;;;;;;29.30;16.58;;;;;;;3.56;66.61;103470.69;4973055;28;20340;-66
2022/03/22 08:33:03;;;;;;;27.83;17.67;;;;;;;3.64;66.60;103466.00;4975563;28;20097;-75
2022/03/22 08:35:56;;;;;;;31.10;16.97;;;;;;;3.77;66.18;103467.34;4971878;28;20329;-76
2022/03/22 08:38:24;;;;;;;31.67;15.87;;;;;;;3.66;65.75;103440.47;4972703;28;20733;-68
2022/03/22 08:40:51;;;;;;;35.40;17.27;;;;;;;3.72;65.98;103463.97;4972593;28;20273;-66
2022/03/22 08:43:21;;;;;;;40.50;18.30;;;;;;;3.66;66.05;103464.19;4972821;28;20306;-69
2022/03/22 08:45:56;;;;;;;48.13;19.33;;;;;;;3.56;65.89;103436.44;4973254;28;20274;-74
2022/03/22 08:48:22;;;;;;;38.67;18.13;;;;;;;3.70;65.63;103449.97;4974801;28;20286;-66
2022/03/22 08:50:50;;;;;;;32.63;16.40;;;;;;;3.85;65.35;103460.00;4972735;28;20277;-66
2022/03/22 08:53:18;;;;;;;33.20;16.73;;;;;;;3.93;65.15;103455.31;4958798;28;20360;-65
2022/03/22 08:55:48;;;;;;;40.47;19.43;;;;;;;4.02;64.60;103460.25;4960015;28;20661;-70
2022/03/22 08:58:14;;;;;;;35.50;17.90;;;;;;;4.00;64.43;103451.53;4959575;28;20289;-73
2022/03/22 09:00:45;;;;;;;35.63;17.70;;;;;;;3.94;64.85;103432.44;4958700;28;20281;-69
2022/03/22 09:03:11;;;;;;;34.17;17.43;;;;;;;4.08;64.17;103450.44;4977609;28;20282;-70
2022/03/22 09:08:21;;;;;;;26.47;14.17;;;;;;;4.12;63.59;103452.03;4976636;28;20042;-65
2022/03/22 09:10:50;;;;;;;28.10;15.30;;;;;;;4.11;63.34;103445.91;4976657;28;20318;-70
2022/03/22 09:13:17;;;;;;;28.65;14.10;;;;;;;4.19;63.28;103449.13;4976640;28;20481;-68
2022/03/22 09:15:44;;;;;;;29.47;14.93;;;;;;;4.27;62.78;103446.19;4958970;28;20046;-70
2022/03/22 09:18:18;;;;;;;25.07;14.00;;;;;;;4.39;62.56;103445.75;4943144;28;20273;-61
2022/03/22 09:20:45;;;;;;;22.47;14.87;;;;;;;4.38;61.48;103428.22;4976264;28;20282;-66
2022/03/22 09:23:12;;;;;;;27.93;14.47;;;;;;;4.56;61.65;103443.34;4976188;28;20328;-67
2022/03/22 09:25:43;;;;;;;28.90;15.40;;;;;;;4.67;61.67;103445.56;4975859;28;20766;-70
2022/03/22 09:28:10;;;;;;;25.37;15.77;;;;;;;4.78;61.70;103439.88;4958468;28;20294;-69
2022/03/22 09:30:36;;;;;;;32.50;16.07;;;;;;;4.90;61.08;103444.66;4976060;28;20262;-65
2022/03/22 09:33:04;;;;;;;28.23;15.03;;;;;;;5.03;60.51;103437.13;4976124;28;20262;-65
2022/03/22 09:35:30;;;;;;;25.77;15.13;;;;;;;5.04;59.89;103434.44;4977405;28;20274;-69
2022/03/22 09:37:58;;;;;;;43.40;16.97;;;;;;;5.18;59.55;103431.22;4977539;28;20368;-64
2022/03/22 09:40:25;;;;;;;24.70;14.87;;;;;;;5.37;59.72;103436.59;4976165;28;20266;-66
2022/03/22 09:42:50;;;;;;;24.60;14.10;;;;;;;5.53;58.68;103443.84;4975981;28;20634;-67
2022/03/22 09:45:18;;;;;;;24.57;16.40;;;;;;;5.47;58.01;103432.66;4974966;28;20282;-69
2022/03/22 09:47:46;;;;;;;21.43;12.73;;;;;;;5.49;57.03;103439.63;4975538;28;20051;-70
2022/03/22 09:50:14;;;;;;;22.45;13.55;;;;;;;5.49;56.80;103430.78;4975614;28;20665;-67
2022/03/22 09:52:40;;;;;;;23.93;13.17;;;;;;;5.47;56.77;103430.00;4975211;28;20725;-68
2022/03/22 09:55:07;;;;;;;25.87;14.97;;;;;;;5.52;56.27;103433.34;4975246;28;20049;-70
2022/03/22 09:57:34;;;;;;;26.60;13.90;;;;;;;5.63;57.02;103440.81;4975129;28;20120;-71
2022/03/22 09:59:59;;;;;;;25.87;15.30;;;;;;;5.70;56.14;103431.69;4975202;28;20757;-69
2022/03/22 10:02:32;;;;;;;22.83;13.70;;;;;;;5.68;56.64;103417.66;4975283;28;20265;-71
2022/03/22 10:04:58;;;;;;;34.27;15.93;;;;;;;5.74;55.94;103435.91;4974068;28;20043;-68
2022/03/22 10:07:27;;;;;;;25.23;15.10;;;;;;;5.67;56.00;103424.75;4975136;28;20278;-68
2022/03/22 10:09:58;;;;;;;19.30;12.82;;;;;;;5.66;55.77;103415.09;4974862;28;20804;-71
2022/03/22 10:12:32;;;;;;;28.47;14.03;;;;;;;5.80;56.27;103420.66;4975150;28;20047;-69
2022/03/22 10:15:17;;;;;;;26.60;12.67;;;;;;;5.89;55.53;103422.91;4975480;28;20626;-69
2022/03/22 10:17:44;;;;;;;30.50;14.77;;;;;;;6.00;55.33;103424.22;4976219;28;20270;-74
2022/03/22 10:20:21;;;;;;;24.87;13.53;;;;;;;5.92;54.89;103415.78;4975782;28;20871;-66
2022/03/22 10:22:58;;;;;;;25.83;14.67;;;;;;;5.89;55.13;103415.00;4974907;28;20266;-68
2022/03/22 10:25:24;;;;;;;28.40;14.80;;;;;;;5.94;55.32;103416.56;4975363;28;20294;-69
2022/03/22 10:27:54;;;;;;;27.50;14.40;;;;;;;6.00;54.72;103411.00;4973287;28;20297;-68
2022/03/22 10:30:21;;;;;;;28.83;14.37;;;;;;;6.12;54.75;103399.88;4975597;28;20408;-67
2022/03/22 10:32:53;;;;;;;28.80;15.17;;;;;;;6.21;53.81;103396.81;4975354;28;20773;-71
2022/03/22 10:35:25;;;;;;;26.80;14.17;;;;;;;6.37;54.20;103410.22;4973490;28;20764;-73
2022/03/22 10:38:08;;;;;;;42.10;16.87;;;;;;;6.35;53.44;103385.56;4975641;28;20380;-69
2022/03/22 10:40:35;;;;;;;27.73;13.50;;;;;;;6.36;51.78;103398.75;4957499;28;20801;-66
2022/03/22 10:43:09;;;;;;;26.63;12.87;;;;;;;6.32;52.04;103406.91;4974453;28;20324;-65
2022/03/22 10:45:52;;;;;;;28.40;14.10;;;;;;;6.41;51.97;103401.19;4974458;28;20685;-66
2022/03/22 10:48:23;;;;;;;24.67;13.83;;;;;;;6.41;50.54;103396.75;4974450;28;20685;-66
2022/03/22 10:50:50;;;;;;;17.17;12.30;;;;;;;6.32;50.23;103388.38;4974192;28;20788;-66
2022/03/22 10:53:17;;;;;;;28.93;14.53;;;;;;;6.35;51.13;103394.38;4974208;28;20278;-65
2022/03/22 10:55:46;;;;;;;22.77;13.60;;;;;;;6.41;50.69;103393.25;4957599;28;20266;-64
2022/03/22 10:58:17;;;;;;;28.77;14.27;;;;;;;6.45;50.61;103390.38;4974101;28;20023;-67
2022/03/22 11:00:44;;;;;;;19.90;12.77;;;;;;;6.39;49.05;103361.56;4972286;28;20035;-65
2022/03/22 11:03:11;;;;;;;33.93;13.03;;;;;;;6.55;49.88;103371.41;4974642;28;20800;-65
2022/03/22 11:06:04;;;;;;;38.30;14.17;;;;;;;6.72;50.05;103368.81;4971901;28;20065;-64
2022/03/22 11:08:29;;;;;;;29.77;13.73;;;;;;;6.83;49.88;103375.31;4973720;28;20388;-65
2022/03/22 11:10:56;;;;;;;36.97;14.60;;;;;;;6.92;49.78;103375.78;4973833;28;20118;-66
2022/03/22 11:13:22;;;;;;;24.60;12.90;;;;;;;6.86;49.14;103361.06;4974327;28;20043;-66
2022/03/22 11:15:49;;;;;;;36.03;14.27;;;;;;;6.85;49.50;103367.28;4974184;28;20535;-66
2022/03/22 11:18:21;;;;;;;29.03;13.23;;;;;;;6.82;49.59;103364.78;4974556;28;20054;-68
2022/03/22 11:20:50;;;;;;;29.40;14.73;;;;;;;6.82;49.00;103364.78;4973892;28;20207;-68
2022/03/22 11:23:42;;;;;;;29.77;13.10;;;;;;;6.86;49.31;103365.50;4974696;28;20105;-69
2022/03/22 11:26:11;;;;;;;21.63;11.27;;;;;;;6.91;48.34;103366.97;4975007;28;20294;-68
2022/03/22 11:28:39;;;;;;;25.67;13.30;;;;;;;6.86;48.02;103369.00;4974049;28;20117;-69
2022/03/22 11:31:09;;;;;;;34.53;13.67;;;;;;;6.65;48.57;103351.50;4974970;28;20784;-66
2022/03/22 11:36:26;;;;;;;29.63;14.63;;;;;;;6.67;48.08;103360.25;4975918;28;20402;-67
2022/03/22 11:38:53;;;;;;;27.87;14.37;;;;;;;6.68;48.09;103349.59;4977949;28;20097;-69
2022/03/22 11:44:27;;;;;;;21.97;12.27;;;;;;;6.72;46.80;103352.94;4973759;28;20097;-69
2022/03/22 11:47:17;;;;;;;20.57;13.33;;;;;;;6.73;47.64;103347.56;4973734;28;20034;-68
2022/03/22 11:49:49;;;;;;;26.93;14.47;;;;;;;6.74;46.81;103351.06;4974222;28;20038;-65
2022/03/22 11:52:16;;;;;;;37.97;13.23;;;;;;;6.74;47.05;103351.06;4956490;28;20278;-64
2022/03/22 11:54:54;;;;;;;23.23;12.83;;;;;;;6.73;47.60;103344.91;4973241;28;20039;-64